Ana Sayfa
METAR-TAF:

METAR-TAF

Havaalanları :

Sanford Regional Airport

Sanford, Maine, Amerika Birleşik Devletleri

Enlem: 43-24N, Boylam: 070-43W, yükseklik: 74 m

Güncel hava durumu gözlemi

Rapor saat 20:56 UTC de 27 dakika önce yapıldı.
Rüzgar kuzeybatıdan 3 kt
Sıcaklık -1°C
Nem 28%
Basınç 1032 hPa
Görüş mesafesi: 16.1 km
Açık gökyüzü

METAR: KSFM 162056Z AUTO 31003KT 10SM CLR M01/M17 A3047 RMK AO2 SLP323 T10061167 53001 FZRANO

Saat: 16:23 (21:23 UTC)


TAF: eksik

4.000'den fazla havaalanı için hava durumu gözlemleri ve tahminleri (METAR ve TAF raporları).

Kullanılabilir istasyonlar harita üzerinde sarı ve kırmızı noktalarla gösterilir.

İstasyonun adını görmek için fareyi noktanın üzerinde gezdirin.

Sonrasında hava gözlem ve tahminlerini görmek için tıklayın.

Haritayı değiştirmek için: yaklaştırmak için siyah artı işaretli yeşil düğmeye ve uzaklaştırmak için de eksi işaretli düğmeye hızla tıklayın; bitişik haritalar için yeşil okları kullanın.


METAR-TAF: